Time;durP1;ratioP1;P1;durP2;ratioP2;P2;SDS_P1;SDS_P2;PMS_P1;PMS_P2;Temp;Humidity;BMP_temperature;BMP_pressure;BME280_temperature;BME280_humidity;BME280_pressure;Samples;Min_cycle;Max_cycle;Signal;HPM_P1;HPM_P2
2021/08/28 00:00:14;;;;;;;2.58;2.35;;;16.20;93.70;;;;;;5075006;28;20028;-67
2021/08/28 00:02:41;;;;;;;2.10;2.00;;;16.10;93.60;;;;;;5073556;28;20025;-67
2021/08/28 00:05:09;;;;;;;2.90;2.70;;;16.10;93.50;;;;;;5074901;28;20017;-65
2021/08/28 00:07:36;;;;;;;2.83;2.28;;;16.30;94.30;;;;;;5074837;28;20016;-66
2021/08/28 00:10:09;;;;;;;2.00;1.90;;;16.50;94.60;;;;;;5073354;28;20032;-67
2021/08/28 00:12:36;;;;;;;2.28;1.90;;;16.60;93.60;;;;;;5073298;28;20023;-67
2021/08/28 00:15:09;;;;;;;3.17;2.20;;;16.70;93.80;;;;;;5074444;28;20090;-67
2021/08/28 00:17:39;;;;;;;2.40;2.20;;;17.00;93.90;;;;;;5074544;28;20021;-67
2021/08/28 00:20:11;;;;;;;2.10;2.00;;;16.60;93.60;;;;;;5073338;28;20362;-66
2021/08/28 00:22:39;;;;;;;2.53;2.33;;;16.80;93.70;;;;;;5074509;28;20020;-68
2021/08/28 00:25:07;;;;;;;2.33;2.22;;;16.70;93.90;;;;;;5073188;28;20027;-67
2021/08/28 00:27:34;;;;;;;2.28;2.00;;;16.40;94.40;;;;;;5073180;28;20074;-66
2021/08/28 00:30:03;;;;;;;2.53;2.33;;;16.40;94.20;;;;;;5074328;28;20024;-68
2021/08/28 00:32:30;;;;;;;3.70;2.38;;;16.50;94.30;;;;;;5072973;28;20021;-66
2021/08/28 00:34:58;;;;;;;4.78;2.88;;;16.40;94.60;;;;;;5072892;28;20028;-67
2021/08/28 00:37:25;;;;;;;3.05;2.75;;;16.80;94.90;;;;;;5074060;28;20028;-67
2021/08/28 00:39:52;;;;;;;2.80;2.60;;;16.80;94.50;;;;;;5072673;28;20024;-65
2021/08/28 00:42:20;;;;;;;2.80;2.60;;;16.80;93.80;;;;;;5074086;28;20114;-66
2021/08/28 00:44:47;;;;;;;3.10;2.88;;;16.50;94.60;;;;;;5073896;28;20017;-66
2021/08/28 00:47:22;;;;;;;2.40;2.30;;;16.70;94.50;;;;;;5073806;28;20107;-68
2021/08/28 00:49:52;;;;;;;2.95;2.70;;;16.90;94.60;;;;;;5073776;28;20067;-66
2021/08/28 00:52:19;;;;;;;2.30;2.20;;;17.10;94.60;;;;;;5072113;28;20028;-65
2021/08/28 00:54:50;;;;;;;2.17;2.08;;;16.90;94.20;;;;;;5073614;28;20032;-66
2021/08/28 00:57:17;;;;;;;2.33;2.22;;;17.00;94.60;;;;;;5073133;28;20021;-67
2021/08/28 00:59:45;;;;;;;3.35;2.42;;;17.10;94.70;;;;;;5073470;28;20495;-67
2021/08/28 01:02:12;;;;;;;2.00;1.80;;;17.30;94.50;;;;;;5073652;28;20477;-68
2021/08/28 01:05:10;;;;;;;1.85;1.70;;;17.50;94.10;;;;;;5072215;28;20027;-67
2021/08/28 01:08:27;;;;;;;1.88;1.77;;;17.30;94.30;;;;;;5070426;28;20029;-68
2021/08/28 01:11:11;;;;;;;1.90;1.80;;;17.20;94.70;;;;;;5011629;28;20478;-67
2021/08/28 01:13:39;;;;;;;2.00;1.90;;;17.20;94.60;;;;;;5073203;28;20397;-68
2021/08/28 01:16:08;;;;;;;2.05;1.95;;;17.10;94.60;;;;;;5071810;28;20027;-66
2021/08/28 01:18:38;;;;;;;2.40;2.20;;;17.50;95.20;;;;;;5073291;28;20020;-65
2021/08/28 01:21:27;;;;;;;2.30;2.20;;;17.90;94.40;;;;;;5073154;28;20119;-65
2021/08/28 01:23:59;;;;;;;1.92;1.80;;;17.40;94.80;;;;;;5073144;28;20108;-64
2021/08/28 01:26:42;;;;;;;2.50;2.30;;;17.20;95.00;;;;;;5073035;28;20454;-64
2021/08/28 01:29:17;;;;;;;2.17;2.08;;;17.40;95.90;;;;;;5071287;28;20028;-65
2021/08/28 01:31:46;;;;;;;2.40;2.30;;;17.70;94.90;;;;;;5072998;28;20024;-65
2021/08/28 01:34:16;;;;;;;2.10;2.00;;;17.80;94.70;;;;;;5073037;28;20028;-68
2021/08/28 01:36:46;;;;;;;2.50;2.40;;;18.20;95.20;;;;;;5071595;28;20028;-67
2021/08/28 01:39:14;;;;;;;2.85;2.75;;;18.00;94.60;;;;;;5071464;28;20524;-67
2021/08/28 01:41:44;;;;;;;2.05;1.95;;;17.80;95.10;;;;;;5072809;28;20017;-68
2021/08/28 01:44:14;;;;;;;1.90;1.90;;;18.10;95.10;;;;;;5073134;28;20114;-67
2021/08/28 01:46:42;;;;;;;2.50;2.40;;;18.00;94.40;;;;;;5072848;28;20024;-67
2021/08/28 01:49:10;;;;;;;2.50;2.30;;;18.10;95.20;;;;;;5072845;28;20032;-68
2021/08/28 01:51:39;;;;;;;2.60;2.50;;;18.40;94.30;;;;;;5072914;28;20074;-70
2021/08/28 01:54:07;;;;;;;2.65;2.10;;;18.70;94.20;;;;;;5071328;28;20111;-68
2021/08/28 01:56:35;;;;;;;2.30;2.20;;;18.70;93.90;;;;;;5072711;28;20029;-68
2021/08/28 01:59:03;;;;;;;2.17;2.10;;;18.90;93.60;;;;;;5072531;28;20036;-68
2021/08/28 02:01:31;;;;;;;2.20;2.10;;;18.70;93.80;;;;;;5072553;28;20134;-68
2021/08/28 02:03:59;;;;;;;2.40;2.30;;;18.70;94.30;;;;;;5071297;28;20074;-67
2021/08/28 02:06:34;;;;;;;2.63;2.50;;;18.20;94.50;;;;;;5072540;28;20017;-67
2021/08/28 02:09:23;;;;;;;2.30;2.20;;;18.00;95.20;;;;;;5072568;28;20044;-67
2021/08/28 02:12:09;;;;;;;2.60;2.40;;;18.00;95.20;;;;;;5065939;28;20028;-66
2021/08/28 02:14:58;;;;;;;2.10;2.00;;;18.10;95.10;;;;;;5076503;28;20068;-65
2021/08/28 02:17:30;;;;;;;2.20;2.10;;;18.20;95.10;;;;;;5076764;28;20025;-65
2021/08/28 02:20:05;;;;;;;2.28;2.00;;;17.90;95.20;;;;;;5075176;28;20035;-66
2021/08/28 02:22:39;;;;;;;2.10;2.00;;;18.00;95.40;;;;;;5076497;28;20048;-66
2021/08/28 02:25:20;;;;;;;2.35;2.20;;;17.80;95.50;;;;;;5076513;28;20105;-67
2021/08/28 02:27:54;;;;;;;2.30;2.20;;;17.70;95.30;;;;;;5076557;28;20021;-68
2021/08/28 02:30:22;;;;;;;2.55;2.40;;;17.60;95.40;;;;;;5076391;28;20107;-66
2021/08/28 02:32:51;;;;;;;2.20;2.10;;;17.50;95.60;;;;;;5076224;28;20028;-67
2021/08/28 02:35:20;;;;;;;2.40;2.30;;;17.30;95.40;;;;;;5074819;28;20032;-65
2021/08/28 02:37:49;;;;;;;2.50;2.30;;;17.30;96.10;;;;;;5076169;28;20354;-65
2021/08/28 02:40:20;;;;;;;2.88;2.78;;;17.20;96.10;;;;;;5076083;28;20044;-66
2021/08/28 02:42:49;;;;;;;2.20;2.10;;;17.20;96.40;;;;;;5076096;28;20023;-67
2021/08/28 02:45:22;;;;;;;2.70;2.50;;;17.30;96.50;;;;;;5076055;28;20100;-68
2021/08/28 02:47:51;;;;;;;2.40;2.30;;;17.40;96.90;;;;;;5076004;28;20021;-67
2021/08/28 02:50:21;;;;;;;2.20;2.10;;;17.50;96.50;;;;;;5075934;28;20126;-66
2021/08/28 02:52:50;;;;;;;2.70;2.50;;;17.50;96.40;;;;;;5075927;28;20031;-66
2021/08/28 02:55:19;;;;;;;2.40;2.30;;;17.60;96.20;;;;;;5075859;28;20493;-67
2021/08/28 02:57:52;;;;;;;2.30;2.20;;;17.60;96.40;;;;;;5075774;28;20487;-66
2021/08/28 03:00:20;;;;;;;2.58;2.47;;;17.90;96.30;;;;;;5075831;28;20020;-68
2021/08/28 03:02:49;;;;;;;2.63;2.42;;;18.00;96.20;;;;;;5075727;28;20028;-67
2021/08/28 03:05:17;;;;;;;2.08;2.08;;;18.30;95.60;;;;;;5075631;28;20020;-65
2021/08/28 03:07:46;;;;;;;2.33;2.15;;;18.20;96.10;;;;;;5074300;28;20041;-65
2021/08/28 03:10:14;;;;;;;2.50;2.30;;;18.10;96.40;;;;;;5075531;28;20021;-65
2021/08/28 03:12:43;;;;;;;2.20;2.10;;;18.20;96.60;;;;;;5075388;28;20017;-66
2021/08/28 03:15:11;;;;;;;2.53;2.30;;;18.20;96.30;;;;;;5075310;28;20044;-66
2021/08/28 03:17:41;;;;;;;2.00;1.90;;;18.20;96.90;;;;;;5075410;28;20017;-67
2021/08/28 03:20:10;;;;;;;2.30;2.00;;;18.30;96.50;;;;;;5073571;28;20112;-67
2021/08/28 03:22:40;;;;;;;2.20;2.10;;;18.20;96.80;;;;;;5075384;28;20062;-67
2021/08/28 03:25:10;;;;;;;2.20;2.10;;;18.40;96.40;;;;;;5075440;28;20381;-67
2021/08/28 03:27:40;;;;;;;2.50;2.40;;;18.80;96.10;;;;;;5075406;28;20070;-67
2021/08/28 03:30:11;;;;;;;2.40;2.30;;;19.10;95.40;;;;;;5075307;28;20481;-65
2021/08/28 03:32:41;;;;;;;2.55;2.35;;;19.20;95.40;;;;;;5075183;28;20028;-65
2021/08/28 03:35:10;;;;;;;2.42;2.30;;;19.50;95.00;;;;;;5075196;28;20027;-66
2021/08/28 03:37:39;;;;;;;2.25;2.15;;;19.50;94.90;;;;;;5075241;28;20035;-66
2021/08/28 03:40:11;;;;;;;2.20;2.10;;;19.30;94.60;;;;;;5075085;28;20517;-66
2021/08/28 03:42:40;;;;;;;2.50;2.40;;;19.20;95.60;;;;;;5075013;28;20025;-66
2021/08/28 03:45:11;;;;;;;3.03;2.65;;;18.90;95.80;;;;;;5073605;28;20024;-66
2021/08/28 03:47:43;;;;;;;2.88;2.60;;;18.70;95.60;;;;;;5075141;28;20028;-66
2021/08/28 03:50:12;;;;;;;2.60;2.40;;;18.70;96.10;;;;;;5075049;28;20036;-66
2021/08/28 03:52:40;;;;;;;2.65;2.47;;;18.80;96.30;;;;;;5073740;28;20162;-66
2021/08/28 03:55:07;;;;;;;2.50;2.30;;;18.90;96.00;;;;;;5074745;28;20017;-66
2021/08/28 03:57:35;;;;;;;2.17;2.08;;;19.10;95.60;;;;;;5074989;28;20016;-66
2021/08/28 04:00:03;;;;;;;2.50;2.40;;;19.40;95.40;;;;;;5073444;28;20029;-66
2021/08/28 04:02:30;;;;;;;2.85;2.60;;;18.90;95.30;;;;;;5074554;28;20028;-65
2021/08/28 04:04:58;;;;;;;2.30;2.20;;;18.80;95.90;;;;;;5074774;28;20431;-66
2021/08/28 04:07:25;;;;;;;2.20;2.10;;;18.70;96.60;;;;;;5074479;28;20028;-65
2021/08/28 04:09:53;;;;;;;2.30;2.20;;;18.60;96.90;;;;;;5074375;28;20020;-66
2021/08/28 04:12:20;;;;;;;2.40;2.20;;;18.60;96.60;;;;;;5074298;28;20485;-66
2021/08/28 04:14:47;;;;;;;2.35;2.17;;;18.20;96.50;;;;;;5072931;28;20446;-66
2021/08/28 04:17:15;;;;;;;2.30;2.17;;;18.30;96.60;;;;;;5072885;28;20085;-65
2021/08/28 04:19:43;;;;;;;2.22;2.00;;;18.30;96.80;;;;;;5074161;28;20059;-65
2021/08/28 04:22:10;;;;;;;2.20;2.10;;;18.20;96.80;;;;;;5074145;28;20495;-66
2021/08/28 04:24:37;;;;;;;2.40;2.20;;;18.20;96.50;;;;;;5074157;28;20012;-64
2021/08/28 04:27:05;;;;;;;2.35;2.25;;;17.90;96.70;;;;;;5074172;28;20028;-67
2021/08/28 04:29:32;;;;;;;2.60;2.40;;;17.80;96.90;;;;;;5074184;28;20054;-66
2021/08/28 04:31:59;;;;;;;3.00;2.70;;;17.70;97.50;;;;;;5073080;28;20541;-66
2021/08/28 04:34:27;;;;;;;3.85;2.60;;;17.70;98.10;;;;;;5074044;28;20024;-66
2021/08/28 04:36:54;;;;;;;2.42;2.22;;;17.70;97.70;;;;;;5072629;28;20025;-66
2021/08/28 04:39:21;;;;;;;3.90;2.65;;;17.70;97.50;;;;;;5074023;28;20548;-66
2021/08/28 04:41:49;;;;;;;3.47;2.83;;;17.70;97.80;;;;;;5074089;28;20021;-66
2021/08/28 04:44:16;;;;;;;3.67;2.50;;;17.70;97.90;;;;;;5073968;28;20017;-66
2021/08/28 04:46:43;;;;;;;3.22;2.33;;;17.70;98.20;;;;;;5073937;28;20025;-65
2021/08/28 04:49:11;;;;;;;2.92;2.65;;;17.70;97.70;;;;;;5072442;28;20405;-66
2021/08/28 04:51:39;;;;;;;5.72;2.80;;;17.60;98.10;;;;;;5073633;28;20078;-66
2021/08/28 04:54:06;;;;;;;8.00;2.90;;;17.60;98.40;;;;;;5073586;28;20024;-67
2021/08/28 04:56:34;;;;;;;2.50;2.30;;;17.60;98.30;;;;;;5073569;28;20052;-68
2021/08/28 04:59:01;;;;;;;2.88;2.60;;;17.50;98.60;;;;;;5073485;28;20488;-65
2021/08/28 05:01:28;;;;;;;3.25;2.67;;;17.60;98.20;;;;;;5073429;28;20027;-67
2021/08/28 05:03:56;;;;;;;2.92;2.55;;;17.70;98.60;;;;;;5073599;28;20078;-67
2021/08/28 05:06:23;;;;;;;3.08;2.20;;;17.80;98.50;;;;;;5073400;28;20043;-68
2021/08/28 05:08:50;;;;;;;2.72;2.50;;;18.00;98.20;;;;;;5073274;28;20024;-66
2021/08/28 05:11:18;;;;;;;4.07;2.30;;;18.00;98.50;;;;;;5071925;28;20504;-65
2021/08/28 05:13:45;;;;;;;4.70;2.10;;;17.90;98.40;;;;;;5073309;28;20047;-66
2021/08/28 05:16:13;;;;;;;3.90;2.20;;;17.70;98.40;;;;;;5072017;28;20081;-68
2021/08/28 05:18:43;;;;;;;2.72;2.20;;;17.70;99.00;;;;;;5073407;28;20044;-68
2021/08/28 05:21:10;;;;;;;3.22;2.20;;;17.50;98.70;;;;;;5071812;28;20035;-66
2021/08/28 05:23:37;;;;;;;3.17;2.15;;;17.40;99.10;;;;;;5073152;28;20021;-68
2021/08/28 05:26:05;;;;;;;4.00;2.20;;;17.20;99.30;;;;;;5073233;28;20301;-66
2021/08/28 05:28:32;;;;;;;3.63;2.40;;;17.20;99.90;;;;;;5073297;28;20024;-68
2021/08/28 05:30:59;;;;;;;3.20;2.28;;;17.00;99.90;;;;;;5073282;28;20025;-68
2021/08/28 05:33:27;;;;;;;2.85;2.28;;;16.90;99.90;;;;;;5073230;28;20048;-65
2021/08/28 05:35:54;;;;;;;2.28;2.08;;;16.90;99.90;;;;;;5073004;28;20024;-66
2021/08/28 05:38:21;;;;;;;3.00;2.35;;;16.70;99.70;;;;;;5073107;28;20036;-66
2021/08/28 05:40:49;;;;;;;5.15;2.70;;;16.70;99.90;;;;;;5073144;28;20109;-67
2021/08/28 05:43:16;;;;;;;6.32;2.65;;;16.70;99.90;;;;;;5071413;28;20397;-67
2021/08/28 05:45:43;;;;;;;3.22;2.60;;;16.60;99.90;;;;;;5071489;28;20031;-66
2021/08/28 05:48:11;;;;;;;4.95;2.38;;;16.60;99.90;;;;;;5071710;28;20025;-67
2021/08/28 05:50:38;;;;;;;3.83;2.50;;;16.60;99.90;;;;;;5072920;28;20040;-67
2021/08/28 05:53:05;;;;;;;3.05;2.60;;;16.60;99.90;;;;;;5071519;28;20398;-67
2021/08/28 05:55:33;;;;;;;6.00;2.80;;;16.70;99.90;;;;;;5071790;28;20469;-65
2021/08/28 05:58:00;;;;;;;2.72;2.40;;;16.60;99.90;;;;;;5072713;28;20025;-65
2021/08/28 06:00:27;;;;;;;3.15;2.20;;;16.50;99.90;;;;;;5072712;28;20020;-66
2021/08/28 06:02:55;;;;;;;3.60;2.50;;;16.50;99.90;;;;;;5072758;28;20048;-66
2021/08/28 06:05:22;;;;;;;4.72;2.50;;;16.50;99.90;;;;;;5072821;28;20099;-66
2021/08/28 06:07:49;;;;;;;6.15;2.60;;;16.50;99.90;;;;;;5072778;28;20066;-67
2021/08/28 06:10:17;;;;;;;4.43;2.40;;;16.40;99.90;;;;;;5072621;28;20013;-66
2021/08/28 06:12:44;;;;;;;3.55;2.40;;;16.40;99.90;;;;;;5072736;28;20457;-68
2021/08/28 06:15:11;;;;;;;6.07;2.92;;;16.40;99.90;;;;;;5072553;28;20123;-67
2021/08/28 06:17:39;;;;;;;4.10;2.40;;;16.40;99.90;;;;;;5071556;28;20064;-67
2021/08/28 06:20:07;;;;;;;4.05;2.08;;;16.40;99.90;;;;;;5072593;28;20456;-67
2021/08/28 06:22:34;;;;;;;3.67;2.33;;;16.30;99.90;;;;;;5072636;28;20024;-67
2021/08/28 06:25:01;;;;;;;2.60;2.40;;;16.30;99.90;;;;;;5071264;28;20035;-66
2021/08/28 06:27:28;;;;;;;2.40;2.20;;;16.20;99.90;;;;;;5071304;28;20082;-67
2021/08/28 06:29:56;;;;;;;4.53;2.67;;;16.10;99.90;;;;;;5072577;28;20027;-65
2021/08/28 06:32:23;;;;;;;5.10;2.30;;;16.10;99.90;;;;;;5072527;28;20036;-65
2021/08/28 06:34:50;;;;;;;2.42;2.22;;;16.20;99.90;;;;;;5072610;28;20059;-67
2021/08/28 06:37:18;;;;;;;7.10;2.40;;;16.10;99.90;;;;;;5071434;28;20120;-68
2021/08/28 06:39:45;;;;;;;3.03;2.55;;;16.10;99.90;;;;;;5072418;28;20370;-66
2021/08/28 06:42:12;;;;;;;2.55;2.17;;;16.10;99.90;;;;;;5071153;28;20056;-68
2021/08/28 06:44:40;;;;;;;5.80;2.70;;;16.00;99.90;;;;;;5072346;28;20059;-64
2021/08/28 06:47:08;;;;;;;3.03;2.65;;;16.00;99.90;;;;;;5071032;28;20106;-66
2021/08/28 06:49:35;;;;;;;3.17;2.88;;;15.90;99.90;;;;;;5072497;28;20029;-65
2021/08/28 06:52:03;;;;;;;3.58;2.40;;;16.00;99.90;;;;;;5072191;28;20492;-68
2021/08/28 06:54:30;;;;;;;5.88;2.47;;;15.90;99.90;;;;;;5072354;28;20025;-66
2021/08/28 06:56:57;;;;;;;4.93;2.55;;;15.90;99.90;;;;;;5075462;28;20047;-67
2021/08/28 06:59:24;;;;;;;2.58;2.42;;;15.80;99.90;;;;;;5074605;28;20538;-66
2021/08/28 07:01:52;;;;;;;2.90;2.70;;;15.80;99.90;;;;;;5075842;28;20028;-64
2021/08/28 07:04:19;;;;;;;4.85;2.80;;;15.80;99.90;;;;;;5075911;28;20021;-67
2021/08/28 07:06:47;;;;;;;4.28;2.95;;;15.80;99.90;;;;;;5075711;28;20039;-66
2021/08/28 07:09:14;;;;;;;4.25;2.85;;;15.80;99.90;;;;;;5074527;28;20024;-65
2021/08/28 07:11:41;;;;;;;5.75;3.00;;;15.70;99.90;;;;;;5075569;28;20479;-66
2021/08/28 07:14:09;;;;;;;4.35;3.05;;;15.70;99.90;;;;;;5075548;28;20055;-65
2021/08/28 07:16:36;;;;;;;3.70;3.20;;;15.70;99.90;;;;;;5075552;28;20033;-66
2021/08/28 07:19:04;;;;;;;3.10;2.47;;;15.70;99.90;;;;;;5074206;28;20086;-66
2021/08/28 07:21:31;;;;;;;3.50;2.67;;;15.60;99.90;;;;;;5075569;28;20016;-66
2021/08/28 07:23:59;;;;;;;2.78;2.50;;;15.60;99.90;;;;;;5075944;28;20457;-66
2021/08/28 07:26:26;;;;;;;4.00;2.60;;;15.60;99.90;;;;;;5075350;28;20024;-66
2021/08/28 07:28:54;;;;;;;9.63;3.05;;;15.50;99.90;;;;;;5075335;28;20431;-66
2021/08/28 07:31:21;;;;;;;3.63;2.70;;;15.50;99.90;;;;;;5074210;28;20503;-66
2021/08/28 07:33:49;;;;;;;4.47;2.75;;;15.50;99.90;;;;;;5057559;28;20032;-67
2021/08/28 07:36:16;;;;;;;3.08;2.70;;;15.40;99.90;;;;;;5075261;28;20039;-66
2021/08/28 07:38:43;;;;;;;4.38;2.92;;;15.40;99.90;;;;;;5075151;28;20362;-66
2021/08/28 07:41:11;;;;;;;5.38;3.03;;;15.40;99.90;;;;;;5075160;28;20020;-66
2021/08/28 07:43:38;;;;;;;8.88;4.32;;;15.40;99.90;;;;;;5075099;28;20021;-70
2021/08/28 07:46:06;;;;;;;5.38;3.35;;;15.30;99.90;;;;;;5073917;28;20021;-70
2021/08/28 07:48:34;;;;;;;37.13;14.32;;;15.30;99.90;;;;;;5073624;28;20397;-70
2021/08/28 07:51:01;;;;;;;107.40;37.05;;;15.30;99.90;;;;;;5073722;28;20033;-70
2021/08/28 07:53:29;;;;;;;91.35;32.13;;;15.30;99.90;;;;;;5073606;28;20063;-70
2021/08/28 07:55:56;;;;;;;92.88;32.20;;;15.30;99.90;;;;;;5075022;28;20108;-70
2021/08/28 07:58:23;;;;;;;25.88;10.57;;;15.30;99.90;;;;;;5074844;28;20074;-70
2021/08/28 08:00:52;;;;;;;70.45;26.40;;;15.30;99.90;;;;;;5075060;28;20013;-70
2021/08/28 08:03:19;;;;;;;64.00;23.50;;;15.40;99.90;;;;;;5074886;28;20078;-69
2021/08/28 08:05:46;;;;;;;3.88;3.30;;;15.40;99.90;;;;;;5074860;28;20389;-69
2021/08/28 08:08:14;;;;;;;11.65;5.07;;;15.40;99.90;;;;;;5072400;28;20024;-70
2021/08/28 08:10:41;;;;;;;58.95;20.27;;;15.30;99.90;;;;;;5074776;28;20024;-69
2021/08/28 08:13:08;;;;;;;14.70;8.15;;;15.30;99.90;;;;;;5074556;28;20051;-71
2021/08/28 08:15:36;;;;;;;32.88;14.00;;;15.30;99.90;;;;;;5074632;28;20067;-69
2021/08/28 08:18:03;;;;;;;17.83;8.50;;;15.30;99.90;;;;;;5073148;28;20059;-68
2021/08/28 08:20:31;;;;;;;14.85;7.45;;;15.30;99.90;;;;;;5074474;28;20028;-69
2021/08/28 08:22:58;;;;;;;7.78;5.25;;;15.20;99.90;;;;;;5074388;28;20099;-70
2021/08/28 08:25:27;;;;;;;7.85;5.65;;;15.20;99.90;;;;;;5074533;28;20055;-72
2021/08/28 08:27:54;;;;;;;7.88;5.55;;;15.20;99.90;;;;;;5073190;28;20488;-70
2021/08/28 08:30:22;;;;;;;8.27;5.95;;;15.20;99.90;;;;;;5074376;28;20023;-70
2021/08/28 08:32:49;;;;;;;13.85;6.65;;;15.20;99.90;;;;;;5074331;28;20035;-70
2021/08/28 08:35:17;;;;;;;6.40;4.07;;;15.20;99.90;;;;;;5074293;28;20505;-71
2021/08/28 08:37:44;;;;;;;5.82;3.78;;;15.10;99.90;;;;;;5073071;28;20021;-69
2021/08/28 08:40:13;;;;;;;6.70;4.40;;;15.10;99.90;;;;;;5072936;28;20024;-71
2021/08/28 08:42:47;;;;;;;6.25;3.28;;;15.00;99.90;;;;;;5074124;28;20066;-69
2021/08/28 08:45:15;;;;;;;5.97;3.47;;;14.90;99.90;;;;;;5072955;28;20033;-69
2021/08/28 08:47:42;;;;;;;6.97;3.38;;;14.90;99.90;;;;;;5072705;28;20021;-69
2021/08/28 08:50:11;;;;;;;11.48;5.65;;;14.90;99.90;;;;;;5072596;28;20036;-69
2021/08/28 08:52:44;;;;;;;7.20;4.20;;;14.90;99.90;;;;;;5073910;28;20423;-69
2021/08/28 08:55:12;;;;;;;13.90;6.22;;;14.80;99.90;;;;;;5072524;28;20048;-70
2021/08/28 08:57:39;;;;;;;6.47;3.47;;;14.80;99.90;;;;;;5072329;28;20032;-69
2021/08/28 09:00:07;;;;;;;12.18;6.22;;;14.80;99.90;;;;;;5073476;28;20021;-69
2021/08/28 09:02:36;;;;;;;5.72;4.40;;;14.80;99.90;;;;;;5072534;28;20036;-69
2021/08/28 09:05:05;;;;;;;6.90;4.43;;;14.80;99.90;;;;;;5073606;28;20388;-68
2021/08/28 09:07:32;;;;;;;9.73;4.80;;;14.80;99.90;;;;;;5072377;28;20031;-68
2021/08/28 09:10:00;;;;;;;6.95;4.22;;;14.80;99.90;;;;;;5072259;28;20342;-70
2021/08/28 09:12:47;;;;;;;6.80;3.85;;;14.70;99.90;;;;;;5073578;28;20452;-70
2021/08/28 09:15:17;;;;;;;6.13;4.40;;;14.70;99.90;;;;;;5073235;28;20048;-67
2021/08/28 09:17:57;;;;;;;6.75;4.70;;;14.70;99.90;;;;;;5073839;28;20013;-68
2021/08/28 09:20:25;;;;;;;12.40;5.80;;;14.70;99.90;;;;;;5072974;28;20110;-67
2021/08/28 09:23:04;;;;;;;9.30;5.95;;;14.60;99.90;;;;;;5073321;28;20103;-69
2021/08/28 09:25:32;;;;;;;11.27;6.75;;;14.60;99.90;;;;;;5073256;28;20028;-67
2021/08/28 09:28:00;;;;;;;7.30;6.32;;;14.60;99.90;;;;;;5072074;28;20024;-68
2021/08/28 09:30:39;;;;;;;9.73;5.60;;;14.60;99.90;;;;;;5071804;28;20111;-70
2021/08/28 09:33:08;;;;;;;8.63;5.90;;;14.50;99.90;;;;;;5071934;28;20048;-68
2021/08/28 09:35:39;;;;;;;9.57;5.15;;;14.40;99.90;;;;;;5073111;28;20524;-70
2021/08/28 09:38:13;;;;;;;6.55;5.15;;;14.30;99.90;;;;;;5071946;28;20374;-69
2021/08/28 09:40:46;;;;;;;7.22;5.55;;;14.30;99.90;;;;;;5073150;28;20029;-67
2021/08/28 09:43:15;;;;;;;8.90;5.47;;;14.20;99.90;;;;;;5073053;28;20025;-67
2021/08/28 09:45:43;;;;;;;9.77;5.63;;;14.00;99.90;;;;;;5072975;28;20048;-66
2021/08/28 09:48:12;;;;;;;7.68;5.35;;;13.90;99.90;;;;;;5071971;28;20016;-69
2021/08/28 09:50:44;;;;;;;9.48;4.95;;;13.80;99.90;;;;;;5071760;28;20031;-70
2021/08/28 09:53:22;;;;;;;11.88;9.80;;;13.70;99.90;;;;;;5073114;28;20016;-67
2021/08/28 09:55:58;;;;;;;13.32;9.65;;;13.60;99.90;;;;;;5073070;28;20407;-67
2021/08/28 09:58:28;;;;;;;11.48;10.00;;;13.60;99.90;;;;;;5072919;28;20052;-66
2021/08/28 10:01:01;;;;;;;13.02;10.93;;;13.50;99.90;;;;;;5072843;28;20067;-69
2021/08/28 10:03:29;;;;;;;13.02;10.32;;;13.40;99.90;;;;;;5071541;28;20024;-69
2021/08/28 10:05:58;;;;;;;11.55;8.93;;;13.30;99.90;;;;;;5072865;28;20051;-70
2021/08/28 10:08:26;;;;;;;10.30;7.38;;;13.20;99.90;;;;;;5071457;28;20107;-69
2021/08/28 10:10:54;;;;;;;9.75;6.75;;;13.10;99.90;;;;;;5072700;28;20108;-67
2021/08/28 10:13:23;;;;;;;10.43;6.75;;;13.10;99.90;;;;;;5071305;28;20064;-69
2021/08/28 10:15:52;;;;;;;11.60;7.63;;;13.00;99.90;;;;;;5071452;28;20135;-68
2021/08/28 10:18:22;;;;;;;9.30;6.60;;;12.90;99.90;;;;;;5072660;28;20042;-68
2021/08/28 10:20:52;;;;;;;8.15;6.43;;;12.90;99.90;;;;;;5071488;28;20123;-67
2021/08/28 10:23:22;;;;;;;8.40;7.03;;;12.80;99.90;;;;;;5071447;28;20032;-68
2021/08/28 10:25:51;;;;;;;10.30;7.88;;;12.70;99.90;;;;;;5072594;28;20032;-68
2021/08/28 10:28:19;;;;;;;9.50;7.78;;;12.70;99.90;;;;;;5072874;28;20028;-66
2021/08/28 10:30:47;;;;;;;11.05;9.70;;;12.60;99.90;;;;;;5072616;28;20029;-69
2021/08/28 10:33:15;;;;;;;26.92;23.70;;;12.50;99.90;;;;;;5076597;28;20096;-68
2021/08/28 10:35:42;;;;;;;19.42;17.30;;;12.50;99.90;;;;;;5076875;28;20024;-69
2021/08/28 10:38:10;;;;;;;17.77;15.93;;;12.50;99.90;;;;;;5076401;28;20035;-69
2021/08/28 10:40:42;;;;;;;11.98;10.60;;;12.40;99.90;;;;;;5076463;28;20021;-67
2021/08/28 10:43:11;;;;;;;9.45;8.60;;;12.40;99.90;;;;;;5075304;28;20119;-68
2021/08/28 10:45:40;;;;;;;11.13;8.00;;;12.30;99.90;;;;;;5075132;28;20024;-69
2021/08/28 10:48:13;;;;;;;10.30;9.30;;;12.30;99.90;;;;;;5076371;28;20017;-68
2021/08/28 10:50:43;;;;;;;10.88;9.50;;;12.20;99.90;;;;;;5074928;28;20033;-68
2021/08/28 10:53:12;;;;;;;12.27;10.45;;;12.10;99.90;;;;;;5076118;28;20020;-68
2021/08/28 10:55:42;;;;;;;12.27;11.00;;;12.10;99.90;;;;;;5076248;28;20025;-68
2021/08/28 10:58:23;;;;;;;11.97;10.23;;;12.00;99.90;;;;;;5075960;28;20543;-69
2021/08/28 11:00:55;;;;;;;11.35;9.55;;;12.00;99.90;;;;;;5074704;28;20028;-67
2021/08/28 11:03:36;;;;;;;9.93;8.93;;;11.90;99.90;;;;;;5076050;28;20016;-68
2021/08/28 11:06:22;;;;;;;11.98;9.75;;;11.90;99.90;;;;;;5074817;28;20017;-68
2021/08/28 11:08:52;;;;;;;10.70;9.60;;;11.90;99.90;;;;;;5074566;28;20032;-68
2021/08/28 11:11:36;;;;;;;10.93;9.70;;;11.90;99.90;;;;;;5075689;28;20033;-69
2021/08/28 11:14:09;;;;;;;11.27;10.15;;;11.80;99.90;;;;;;5075416;28;20040;-68
2021/08/28 11:16:43;;;;;;;12.27;10.85;;;11.80;99.90;;;;;;5075642;28;20103;-68
2021/08/28 11:19:23;;;;;;;14.10;10.35;;;11.80;99.90;;;;;;5074224;28;20048;-68
2021/08/28 11:21:52;;;;;;;11.90;10.68;;;11.70;99.90;;;;;;5075650;28;20078;-68
2021/08/28 11:24:25;;;;;;;12.57;10.85;;;11.70;99.90;;;;;;5075593;28;20108;-68
2021/08/28 11:26:58;;;;;;;13.70;10.68;;;11.60;99.90;;;;;;5075542;28;20024;-68
2021/08/28 11:29:34;;;;;;;12.98;11.02;;;11.60;99.90;;;;;;5075576;28;20126;-67
2021/08/28 11:32:13;;;;;;;14.77;11.52;;;11.50;99.90;;;;;;5075509;28;20029;-68
2021/08/28 11:35:01;;;;;;;15.05;13.02;;;11.50;99.90;;;;;;5075327;28;20052;-68
2021/08/28 11:37:31;;;;;;;13.60;12.30;;;11.50;99.90;;;;;;5075316;28;20078;-67
2021/08/28 11:40:00;;;;;;;13.07;11.75;;;11.50;99.90;;;;;;5075473;28;20043;-68
2021/08/28 11:42:29;;;;;;;12.27;11.13;;;11.40;99.90;;;;;;5074987;28;20024;-68
2021/08/28 11:44:58;;;;;;;17.20;12.30;;;11.40;99.90;;;;;;5073873;28;20059;-68
2021/08/28 11:47:28;;;;;;;13.45;12.07;;;11.40;99.90;;;;;;5075117;28;20100;-69
2021/08/28 11:50:06;;;;;;;14.07;12.40;;;11.30;99.90;;;;;;5075146;28;20024;-69
2021/08/28 11:52:37;;;;;;;14.43;12.88;;;11.30;99.90;;;;;;5075079;28;20043;-69
2021/08/28 11:55:10;;;;;;;14.68;13.18;;;11.30;99.90;;;;;;5075006;28;20029;-69
2021/08/28 11:57:37;;;;;;;17.98;14.10;;;11.30;99.90;;;;;;5074871;28;20021;-69
2021/08/28 12:00:07;;;;;;;15.55;12.88;;;11.20;99.90;;;;;;5074746;28;20029;-69
2021/08/28 12:02:34;;;;;;;14.15;12.52;;;11.20;99.90;;;;;;5073485;28;20024;-70
2021/08/28 12:05:13;;;;;;;14.52;12.88;;;11.10;99.90;;;;;;5074818;28;20024;-69
2021/08/28 12:07:41;;;;;;;13.60;12.38;;;11.10;99.90;;;;;;5074813;28;20016;-69
2021/08/28 12:10:09;;;;;;;12.60;11.30;;;11.10;99.90;;;;;;5074633;28;20016;-69
2021/08/28 12:12:36;;;;;;;17.95;13.10;;;11.10;99.90;;;;;;5073318;28;20489;-69
2021/08/28 12:15:07;;;;;;;13.23;11.88;;;11.10;99.90;;;;;;5074491;28;20044;-69
2021/08/28 12:17:34;;;;;;;14.02;11.65;;;11.00;99.90;;;;;;5073329;28;20020;-69
2021/08/28 12:20:03;;;;;;;12.25;11.05;;;11.00;99.90;;;;;;5074522;28;20036;-69
2021/08/28 12:22:31;;;;;;;13.68;12.27;;;11.00;99.90;;;;;;5074407;28;20541;-69
2021/08/28 12:24:58;;;;;;;12.88;11.57;;;11.00;99.90;;;;;;5073154;28;20431;-69
2021/08/28 12:27:25;;;;;;;14.05;12.45;;;10.90;99.90;;;;;;5074407;28;20025;-69
2021/08/28 12:29:53;;;;;;;14.98;11.65;;;10.80;99.90;;;;;;5074348;28;20099;-70
2021/08/28 12:32:27;;;;;;;13.05;11.70;;;10.80;99.90;;;;;;5073051;28;20028;-70
2021/08/28 12:34:56;;;;;;;15.77;13.57;;;10.80;99.90;;;;;;5072969;28;20042;-68
2021/08/28 12:37:25;;;;;;;14.85;13.20;;;10.80;99.90;;;;;;5072961;28;20546;-68
2021/08/28 12:39:55;;;;;;;14.10;12.75;;;10.70;99.90;;;;;;5072716;28;20029;-68
2021/08/28 12:42:24;;;;;;;13.80;11.88;;;10.70;99.90;;;;;;5074177;28;20025;-68
2021/08/28 12:44:59;;;;;;;15.55;12.70;;;10.70;99.90;;;;;;5074153;28;20021;-68
2021/08/28 12:47:30;;;;;;;14.60;12.45;;;10.60;99.90;;;;;;5074030;28;20020;-69
2021/08/28 12:49:57;;;;;;;;;;;10.50;99.90;;;;;;5074443;28;20024;-69
2021/08/28 12:52:42;;;;;;;15.90;12.60;;;10.50;99.90;;;;;;5073831;28;19904;-68
2021/08/28 12:55:20;;;;;;;14.13;12.70;;;10.40;99.90;;;;;;5073568;28;20032;-69